sensor_id;sensor_type;location;lat;lon;timestamp;pressure;altitude;pressure_sealevel;temperature;humidity
37206;BME280;23099;42.636;23.198;2023-03-22T00:00:09;91625.06;;;7.66;100.00
37206;BME280;23099;42.636;23.198;2023-03-22T00:02:38;91624.66;;;7.64;100.00
37206;BME280;23099;42.636;23.198;2023-03-22T00:05:08;91615.75;;;7.57;100.00
37206;BME280;23099;42.636;23.198;2023-03-22T00:07:34;91614.72;;;7.61;100.00
37206;BME280;23099;42.636;23.198;2023-03-22T00:10:03;91619.59;;;7.59;100.00
37206;BME280;23099;42.636;23.198;2023-03-22T00:12:30;91620.84;;;7.65;100.00
37206;BME280;23099;42.636;23.198;2023-03-22T00:14:56;91614.41;;;7.66;100.00
37206;BME280;23099;42.636;23.198;2023-03-22T00:17:24;91604.50;;;7.63;100.00
37206;BME280;23099;42.636;23.198;2023-03-22T00:19:51;91612.88;;;7.65;100.00
37206;BME280;23099;42.636;23.198;2023-03-22T00:22:20;91603.03;;;7.47;100.00
37206;BME280;23099;42.636;23.198;2023-03-22T00:24:46;91613.44;;;7.55;100.00
37206;BME280;23099;42.636;23.198;2023-03-22T00:27:13;91610.72;;;7.52;100.00
37206;BME280;23099;42.636;23.198;2023-03-22T00:29:40;91613.09;;;7.57;100.00
37206;BME280;23099;42.636;23.198;2023-03-22T00:32:07;91602.59;;;7.44;100.00
37206;BME280;23099;42.636;23.198;2023-03-22T00:34:33;91605.31;;;7.29;100.00
37206;BME280;23099;42.636;23.198;2023-03-22T00:37:00;91611.50;;;7.33;100.00
37206;BME280;23099;42.636;23.198;2023-03-22T00:39:28;91614.19;;;7.36;100.00
37206;BME280;23099;42.636;23.198;2023-03-22T00:41:55;91599.94;;;7.44;100.00
37206;BME280;23099;42.636;23.198;2023-03-22T00:44:21;91604.63;;;7.51;100.00
37206;BME280;23099;42.636;23.198;2023-03-22T00:46:48;91603.16;;;7.54;100.00
37206;BME280;23099;42.636;23.198;2023-03-22T00:49:15;91606.16;;;7.52;100.00
37206;BME280;23099;42.636;23.198;2023-03-22T00:51:43;91607.34;;;7.55;100.00
37206;BME280;23099;42.636;23.198;2023-03-22T00:54:10;91605.63;;;7.43;100.00
37206;BME280;23099;42.636;23.198;2023-03-22T00:56:38;91604.22;;;7.49;100.00
37206;BME280;23099;42.636;23.198;2023-03-22T00:59:05;91605.88;;;7.38;100.00
37206;BME280;23099;42.636;23.198;2023-03-22T01:01:31;91608.97;;;7.40;100.00
37206;BME280;23099;42.636;23.198;2023-03-22T01:03:58;91606.31;;;7.40;100.00
37206;BME280;23099;42.636;23.198;2023-03-22T01:06:25;91604.56;;;7.48;100.00
37206;BME280;23099;42.636;23.198;2023-03-22T01:08:51;91606.25;;;7.56;100.00
37206;BME280;23099;42.636;23.198;2023-03-22T01:11:19;91600.22;;;7.59;100.00
37206;BME280;23099;42.636;23.198;2023-03-22T01:13:47;91600.66;;;7.61;100.00
37206;BME280;23099;42.636;23.198;2023-03-22T01:16:15;91590.09;;;7.64;100.00
37206;BME280;23099;42.636;23.198;2023-03-22T01:18:42;91595.78;;;7.66;100.00
37206;BME280;23099;42.636;23.198;2023-03-22T01:21:09;91580.84;;;7.58;100.00
37206;BME280;23099;42.636;23.198;2023-03-22T01:23:36;91592.66;;;7.61;100.00
37206;BME280;23099;42.636;23.198;2023-03-22T01:26:03;91597.06;;;7.53;100.00
37206;BME280;23099;42.636;23.198;2023-03-22T01:28:30;91590.28;;;7.56;100.00
37206;BME280;23099;42.636;23.198;2023-03-22T01:31:01;91592.88;;;7.52;100.00
37206;BME280;23099;42.636;23.198;2023-03-22T01:33:28;91591.41;;;7.55;100.00
37206;BME280;23099;42.636;23.198;2023-03-22T01:35:55;91590.34;;;7.59;100.00
37206;BME280;23099;42.636;23.198;2023-03-22T01:38:21;91591.59;;;7.65;100.00
37206;BME280;23099;42.636;23.198;2023-03-22T01:40:48;91590.63;;;7.54;100.00
37206;BME280;23099;42.636;23.198;2023-03-22T01:43:15;91587.91;;;7.51;100.00
37206;BME280;23099;42.636;23.198;2023-03-22T01:45:43;91580.63;;;7.48;100.00
37206;BME280;23099;42.636;23.198;2023-03-22T01:48:16;91583.78;;;7.53;100.00
37206;BME280;23099;42.636;23.198;2023-03-22T01:50:48;91582.66;;;7.54;100.00
37206;BME280;23099;42.636;23.198;2023-03-22T01:53:22;91590.97;;;7.53;100.00
37206;BME280;23099;42.636;23.198;2023-03-22T01:55:51;91584.06;;;7.48;100.00
37206;BME280;23099;42.636;23.198;2023-03-22T01:58:18;91589.16;;;7.57;100.00
37206;BME280;23099;42.636;23.198;2023-03-22T02:00:46;91585.47;;;7.61;100.00
37206;BME280;23099;42.636;23.198;2023-03-22T02:03:19;91587.34;;;7.61;100.00
37206;BME280;23099;42.636;23.198;2023-03-22T02:05:51;91582.81;;;7.61;100.00
37206;BME280;23099;42.636;23.198;2023-03-22T02:08:19;91580.97;;;7.65;100.00
37206;BME280;23099;42.636;23.198;2023-03-22T02:10:46;91585.22;;;7.70;100.00
37206;BME280;23099;42.636;23.198;2023-03-22T02:13:36;91584.88;;;7.71;100.00
37206;BME280;23099;42.636;23.198;2023-03-22T02:16:21;91588.72;;;7.74;100.00
37206;BME280;23099;42.636;23.198;2023-03-22T02:19:09;91576.63;;;7.76;100.00
37206;BME280;23099;42.636;23.198;2023-03-22T02:22:06;91588.06;;;7.80;100.00
37206;BME280;23099;42.636;23.198;2023-03-22T02:28:16;91592.25;;;7.78;100.00
37206;BME280;23099;42.636;23.198;2023-03-22T02:31:01;91584.25;;;7.59;100.00
37206;BME280;23099;42.636;23.198;2023-03-22T02:37:12;91593.97;;;7.70;100.00
37206;BME280;23099;42.636;23.198;2023-03-22T02:39:49;91589.09;;;7.72;100.00
37206;BME280;23099;42.636;23.198;2023-03-22T02:42:25;91599.72;;;7.72;100.00
37206;BME280;23099;42.636;23.198;2023-03-22T02:44:58;91588.16;;;7.65;100.00
37206;BME280;23099;42.636;23.198;2023-03-22T02:47:36;91597.34;;;7.67;100.00
37206;BME280;23099;42.636;23.198;2023-03-22T02:50:09;91599.56;;;7.65;100.00
37206;BME280;23099;42.636;23.198;2023-03-22T02:52:39;91609.44;;;7.65;100.00
37206;BME280;23099;42.636;23.198;2023-03-22T02:55:13;91604.91;;;7.65;100.00
37206;BME280;23099;42.636;23.198;2023-03-22T02:57:46;91604.53;;;7.67;100.00
37206;BME280;23099;42.636;23.198;2023-03-22T03:00:16;91611.13;;;7.73;100.00
37206;BME280;23099;42.636;23.198;2023-03-22T03:02:48;91600.16;;;7.74;100.00
37206;BME280;23099;42.636;23.198;2023-03-22T03:05:17;91602.38;;;7.72;100.00
37206;BME280;23099;42.636;23.198;2023-03-22T03:07:48;91608.91;;;7.75;100.00
37206;BME280;23099;42.636;23.198;2023-03-22T03:10:18;91612.75;;;7.77;100.00
37206;BME280;23099;42.636;23.198;2023-03-22T03:12:46;91614.69;;;7.80;100.00
37206;BME280;23099;42.636;23.198;2023-03-22T03:15:15;91600.91;;;7.75;100.00
37206;BME280;23099;42.636;23.198;2023-03-22T03:18:01;91612.78;;;7.81;100.00
37206;BME280;23099;42.636;23.198;2023-03-22T03:20:37;91607.91;;;7.83;100.00
37206;BME280;23099;42.636;23.198;2023-03-22T03:23:16;91613.56;;;7.81;100.00
37206;BME280;23099;42.636;23.198;2023-03-22T03:25:55;91613.09;;;7.76;100.00
37206;BME280;23099;42.636;23.198;2023-03-22T03:28:26;91611.91;;;7.73;100.00
37206;BME280;23099;42.636;23.198;2023-03-22T03:31:07;91611.97;;;7.77;100.00
37206;BME280;23099;42.636;23.198;2023-03-22T03:33:40;91611.63;;;7.78;100.00
37206;BME280;23099;42.636;23.198;2023-03-22T03:36:11;91616.72;;;7.68;100.00
37206;BME280;23099;42.636;23.198;2023-03-22T03:38:44;91611.72;;;7.63;100.00
37206;BME280;23099;42.636;23.198;2023-03-22T03:41:15;91620.47;;;7.63;100.00
37206;BME280;23099;42.636;23.198;2023-03-22T03:43:44;91621.22;;;7.64;100.00
37206;BME280;23099;42.636;23.198;2023-03-22T03:46:11;91623.13;;;7.63;100.00
37206;BME280;23099;42.636;23.198;2023-03-22T03:48:40;91624.28;;;7.66;100.00
37206;BME280;23099;42.636;23.198;2023-03-22T03:51:08;91617.78;;;7.63;100.00
37206;BME280;23099;42.636;23.198;2023-03-22T03:53:35;91616.25;;;7.62;100.00
37206;BME280;23099;42.636;23.198;2023-03-22T03:56:01;91624.16;;;7.59;100.00
37206;BME280;23099;42.636;23.198;2023-03-22T03:58:29;91623.31;;;7.55;100.00
37206;BME280;23099;42.636;23.198;2023-03-22T04:00:57;91630.94;;;7.56;100.00
37206;BME280;23099;42.636;23.198;2023-03-22T04:03:24;91625.63;;;7.56;100.00
37206;BME280;23099;42.636;23.198;2023-03-22T04:05:50;91628.22;;;7.53;100.00
37206;BME280;23099;42.636;23.198;2023-03-22T04:08:17;91631.16;;;7.48;100.00
37206;BME280;23099;42.636;23.198;2023-03-22T04:10:48;91639.19;;;7.51;100.00
37206;BME280;23099;42.636;23.198;2023-03-22T04:13:14;91637.25;;;7.48;100.00
37206;BME280;23099;42.636;23.198;2023-03-22T04:15:42;91633.25;;;7.38;100.00
37206;BME280;23099;42.636;23.198;2023-03-22T04:18:09;91634.34;;;7.37;100.00
37206;BME280;23099;42.636;23.198;2023-03-22T04:20:36;91635.84;;;7.35;100.00
37206;BME280;23099;42.636;23.198;2023-03-22T04:23:06;91636.25;;;7.37;100.00
37206;BME280;23099;42.636;23.198;2023-03-22T04:25:35;91635.69;;;7.28;100.00
37206;BME280;23099;42.636;23.198;2023-03-22T04:28:02;91641.22;;;7.19;100.00
37206;BME280;23099;42.636;23.198;2023-03-22T04:30:29;91640.91;;;7.05;100.00
37206;BME280;23099;42.636;23.198;2023-03-22T04:33:02;91642.28;;;6.99;100.00
37206;BME280;23099;42.636;23.198;2023-03-22T04:35:32;91645.34;;;7.01;100.00
37206;BME280;23099;42.636;23.198;2023-03-22T04:37:58;91639.88;;;6.94;100.00
37206;BME280;23099;42.636;23.198;2023-03-22T04:40:26;91642.72;;;6.85;100.00
37206;BME280;23099;42.636;23.198;2023-03-22T04:42:56;91636.53;;;6.97;100.00
37206;BME280;23099;42.636;23.198;2023-03-22T04:45:23;91651.44;;;7.01;100.00
37206;BME280;23099;42.636;23.198;2023-03-22T04:47:53;91640.13;;;7.04;100.00
37206;BME280;23099;42.636;23.198;2023-03-22T04:50:22;91644.03;;;7.10;100.00
37206;BME280;23099;42.636;23.198;2023-03-22T04:52:49;91653.47;;;7.08;100.00
37206;BME280;23099;42.636;23.198;2023-03-22T04:55:16;91660.00;;;7.10;100.00
37206;BME280;23099;42.636;23.198;2023-03-22T04:57:42;91657.00;;;7.12;100.00
37206;BME280;23099;42.636;23.198;2023-03-22T05:00:10;91661.28;;;7.17;100.00
37206;BME280;23099;42.636;23.198;2023-03-22T05:02:37;91661.97;;;7.14;100.00
37206;BME280;23099;42.636;23.198;2023-03-22T05:05:05;91659.31;;;7.14;100.00
37206;BME280;23099;42.636;23.198;2023-03-22T05:07:34;91662.56;;;7.07;100.00
37206;BME280;23099;42.636;23.198;2023-03-22T05:10:00;91658.63;;;7.17;100.00
37206;BME280;23099;42.636;23.198;2023-03-22T05:12:27;91665.19;;;7.23;100.00
37206;BME280;23099;42.636;23.198;2023-03-22T05:14:54;91668.78;;;7.30;100.00
37206;BME280;23099;42.636;23.198;2023-03-22T05:17:21;91659.53;;;7.24;100.00
37206;BME280;23099;42.636;23.198;2023-03-22T05:19:48;91669.25;;;7.36;100.00
37206;BME280;23099;42.636;23.198;2023-03-22T05:22:15;91683.84;;;7.42;100.00
37206;BME280;23099;42.636;23.198;2023-03-22T05:24:44;91677.88;;;7.29;100.00
37206;BME280;23099;42.636;23.198;2023-03-22T05:27:11;91663.53;;;7.34;100.00
37206;BME280;23099;42.636;23.198;2023-03-22T05:29:38;91675.59;;;7.47;100.00
37206;BME280;23099;42.636;23.198;2023-03-22T05:32:09;91675.38;;;7.56;100.00
37206;BME280;23099;42.636;23.198;2023-03-22T05:34:36;91674.41;;;7.64;100.00
37206;BME280;23099;42.636;23.198;2023-03-22T05:37:03;91678.13;;;7.59;100.00
37206;BME280;23099;42.636;23.198;2023-03-22T05:39:29;91680.13;;;7.66;100.00
37206;BME280;23099;42.636;23.198;2023-03-22T05:41:57;91681.69;;;7.67;100.00
37206;BME280;23099;42.636;23.198;2023-03-22T05:44:24;91677.91;;;7.68;100.00
37206;BME280;23099;42.636;23.198;2023-03-22T05:46:51;91679.53;;;7.72;100.00
37206;BME280;23099;42.636;23.198;2023-03-22T05:49:18;91684.50;;;7.74;100.00
37206;BME280;23099;42.636;23.198;2023-03-22T05:51:44;91684.06;;;7.72;100.00
37206;BME280;23099;42.636;23.198;2023-03-22T05:54:11;91692.66;;;7.65;100.00
37206;BME280;23099;42.636;23.198;2023-03-22T05:56:38;91697.72;;;7.70;100.00
37206;BME280;23099;42.636;23.198;2023-03-22T05:59:06;91700.09;;;7.75;100.00
37206;BME280;23099;42.636;23.198;2023-03-22T06:01:33;91689.16;;;7.80;100.00
37206;BME280;23099;42.636;23.198;2023-03-22T06:04:00;91694.44;;;7.77;100.00
37206;BME280;23099;42.636;23.198;2023-03-22T06:06:27;91703.59;;;7.79;100.00
37206;BME280;23099;42.636;23.198;2023-03-22T06:08:54;91693.03;;;7.83;100.00
37206;BME280;23099;42.636;23.198;2023-03-22T06:11:21;91701.09;;;7.87;100.00
37206;BME280;23099;42.636;23.198;2023-03-22T06:13:48;91702.13;;;7.82;100.00
37206;BME280;23099;42.636;23.198;2023-03-22T06:16:16;91701.69;;;7.80;100.00
37206;BME280;23099;42.636;23.198;2023-03-22T06:18:43;91702.19;;;7.86;100.00
37206;BME280;23099;42.636;23.198;2023-03-22T06:21:09;91701.50;;;7.89;100.00
37206;BME280;23099;42.636;23.198;2023-03-22T06:23:36;91689.31;;;7.88;100.00
37206;BME280;23099;42.636;23.198;2023-03-22T06:26:03;91696.72;;;7.98;100.00
37206;BME280;23099;42.636;23.198;2023-03-22T06:28:30;91709.63;;;7.96;100.00
37206;BME280;23099;42.636;23.198;2023-03-22T06:30:57;91704.25;;;7.92;100.00
37206;BME280;23099;42.636;23.198;2023-03-22T06:33:25;91708.50;;;7.97;100.00
37206;BME280;23099;42.636;23.198;2023-03-22T06:35:52;91699.06;;;7.99;100.00
37206;BME280;23099;42.636;23.198;2023-03-22T06:38:18;91707.53;;;8.05;100.00
37206;BME280;23099;42.636;23.198;2023-03-22T06:40:45;91710.81;;;8.18;100.00
37206;BME280;23099;42.636;23.198;2023-03-22T06:43:12;91715.56;;;8.28;100.00
37206;BME280;23099;42.636;23.198;2023-03-22T06:45:38;91715.31;;;8.33;100.00
37206;BME280;23099;42.636;23.198;2023-03-22T06:48:05;91716.13;;;8.37;100.00
37206;BME280;23099;42.636;23.198;2023-03-22T06:50:33;91720.81;;;8.24;100.00
37206;BME280;23099;42.636;23.198;2023-03-22T06:53:02;91724.19;;;8.21;100.00
37206;BME280;23099;42.636;23.198;2023-03-22T06:55:29;91723.13;;;8.26;100.00
37206;BME280;23099;42.636;23.198;2023-03-22T06:57:58;91728.50;;;8.29;100.00
37206;BME280;23099;42.636;23.198;2023-03-22T07:00:25;91725.97;;;8.33;100.00
37206;BME280;23099;42.636;23.198;2023-03-22T07:02:52;91729.28;;;8.30;100.00
37206;BME280;23099;42.636;23.198;2023-03-22T07:05:19;91733.41;;;8.27;100.00
37206;BME280;23099;42.636;23.198;2023-03-22T07:07:47;91726.47;;;8.23;100.00
37206;BME280;23099;42.636;23.198;2023-03-22T07:10:13;91731.59;;;8.31;100.00
37206;BME280;23099;42.636;23.198;2023-03-22T07:12:40;91736.22;;;8.15;100.00
37206;BME280;23099;42.636;23.198;2023-03-22T07:15:07;91731.00;;;8.19;100.00
37206;BME280;23099;42.636;23.198;2023-03-22T07:17:34;91731.47;;;8.24;100.00
37206;BME280;23099;42.636;23.198;2023-03-22T07:20:01;91738.50;;;8.32;100.00
37206;BME280;23099;42.636;23.198;2023-03-22T07:22:28;91728.94;;;8.31;100.00
37206;BME280;23099;42.636;23.198;2023-03-22T07:24:56;91743.06;;;8.32;100.00
37206;BME280;23099;42.636;23.198;2023-03-22T07:27:23;91751.66;;;8.44;100.00
37206;BME280;23099;42.636;23.198;2023-03-22T07:29:49;91745.31;;;8.52;100.00
37206;BME280;23099;42.636;23.198;2023-03-22T07:32:16;91754.31;;;8.64;100.00
37206;BME280;23099;42.636;23.198;2023-03-22T07:34:43;91752.41;;;8.64;100.00
37206;BME280;23099;42.636;23.198;2023-03-22T07:37:09;91760.16;;;8.73;100.00
37206;BME280;23099;42.636;23.198;2023-03-22T07:39:36;91752.25;;;8.76;100.00
37206;BME280;23099;42.636;23.198;2023-03-22T07:42:04;91756.19;;;8.86;100.00
37206;BME280;23099;42.636;23.198;2023-03-22T07:44:31;91758.47;;;9.07;100.00
37206;BME280;23099;42.636;23.198;2023-03-22T07:46:58;91755.53;;;9.15;100.00
37206;BME280;23099;42.636;23.198;2023-03-22T07:49:25;91755.44;;;9.08;100.00
37206;BME280;23099;42.636;23.198;2023-03-22T07:51:52;91762.34;;;9.13;100.00
37206;BME280;23099;42.636;23.198;2023-03-22T07:54:18;91763.66;;;9.00;100.00
37206;BME280;23099;42.636;23.198;2023-03-22T07:56:45;91767.69;;;8.90;100.00
37206;BME280;23099;42.636;23.198;2023-03-22T07:59:14;91765.06;;;8.71;100.00
37206;BME280;23099;42.636;23.198;2023-03-22T08:01:40;91769.09;;;8.84;100.00
37206;BME280;23099;42.636;23.198;2023-03-22T08:04:07;91772.06;;;8.79;100.00
37206;BME280;23099;42.636;23.198;2023-03-22T08:06:34;91773.19;;;8.78;100.00
37206;BME280;23099;42.636;23.198;2023-03-22T08:09:01;91769.44;;;8.82;100.00
37206;BME280;23099;42.636;23.198;2023-03-22T08:11:29;91776.69;;;8.82;100.00
37206;BME280;23099;42.636;23.198;2023-03-22T08:13:55;91777.88;;;8.84;100.00
37206;BME280;23099;42.636;23.198;2023-03-22T08:16:23;91770.75;;;8.69;100.00
37206;BME280;23099;42.636;23.198;2023-03-22T08:18:50;91777.50;;;8.63;100.00
37206;BME280;23099;42.636;23.198;2023-03-22T08:21:17;91779.66;;;8.77;100.00
37206;BME280;23099;42.636;23.198;2023-03-22T08:23:44;91775.38;;;8.72;100.00
37206;BME280;23099;42.636;23.198;2023-03-22T08:26:10;91777.84;;;8.62;100.00
37206;BME280;23099;42.636;23.198;2023-03-22T08:28:37;91783.19;;;8.62;100.00
37206;BME280;23099;42.636;23.198;2023-03-22T08:31:09;91777.44;;;8.60;100.00
37206;BME280;23099;42.636;23.198;2023-03-22T08:33:38;91777.34;;;8.56;100.00
37206;BME280;23099;42.636;23.198;2023-03-22T08:36:06;91783.19;;;8.62;100.00
37206;BME280;23099;42.636;23.198;2023-03-22T08:38:33;91780.94;;;8.64;100.00
37206;BME280;23099;42.636;23.198;2023-03-22T08:41:00;91787.81;;;8.65;100.00
37206;BME280;23099;42.636;23.198;2023-03-22T08:43:27;91789.31;;;8.66;100.00
37206;BME280;23099;42.636;23.198;2023-03-22T08:45:54;91789.41;;;8.69;100.00
37206;BME280;23099;42.636;23.198;2023-03-22T08:48:21;91797.03;;;8.71;100.00
37206;BME280;23099;42.636;23.198;2023-03-22T08:50:49;91792.84;;;8.70;100.00
37206;BME280;23099;42.636;23.198;2023-03-22T08:53:15;91797.09;;;8.74;100.00
37206;BME280;23099;42.636;23.198;2023-03-22T08:55:42;91779.09;;;8.68;100.00
37206;BME280;23099;42.636;23.198;2023-03-22T08:58:10;91799.06;;;8.77;100.00
37206;BME280;23099;42.636;23.198;2023-03-22T09:00:36;91805.22;;;8.81;100.00
37206;BME280;23099;42.636;23.198;2023-03-22T09:03:04;91810.34;;;8.90;100.00
37206;BME280;23099;42.636;23.198;2023-03-22T09:05:31;91804.69;;;8.95;100.00
37206;BME280;23099;42.636;23.198;2023-03-22T09:07:59;91806.59;;;8.95;100.00
37206;BME280;23099;42.636;23.198;2023-03-22T09:10:26;91811.88;;;8.91;100.00
37206;BME280;23099;42.636;23.198;2023-03-22T09:12:53;91812.50;;;8.84;100.00
37206;BME280;23099;42.636;23.198;2023-03-22T09:15:20;91808.78;;;8.89;100.00
37206;BME280;23099;42.636;23.198;2023-03-22T09:17:46;91822.13;;;8.89;100.00
37206;BME280;23099;42.636;23.198;2023-03-22T09:20:13;91802.63;;;8.85;100.00
37206;BME280;23099;42.636;23.198;2023-03-22T09:22:40;91813.06;;;8.94;100.00
37206;BME280;23099;42.636;23.198;2023-03-22T09:25:09;91818.03;;;8.95;100.00
37206;BME280;23099;42.636;23.198;2023-03-22T09:27:36;91810.25;;;8.86;100.00
37206;BME280;23099;42.636;23.198;2023-03-22T09:30:03;91807.75;;;8.94;100.00
37206;BME280;23099;42.636;23.198;2023-03-22T09:32:30;91809.75;;;9.00;100.00
37206;BME280;23099;42.636;23.198;2023-03-22T09:34:56;91806.81;;;9.05;100.00
37206;BME280;23099;42.636;23.198;2023-03-22T09:37:25;91801.94;;;9.11;100.00
37206;BME280;23099;42.636;23.198;2023-03-22T09:39:55;91803.94;;;9.17;100.00
37206;BME280;23099;42.636;23.198;2023-03-22T09:42:31;91798.63;;;9.17;100.00
37206;BME280;23099;42.636;23.198;2023-03-22T09:45:01;91805.44;;;9.15;100.00
37206;BME280;23099;42.636;23.198;2023-03-22T09:47:33;91805.44;;;9.15;100.00
37206;BME280;23099;42.636;23.198;2023-03-22T09:50:05;91805.72;;;9.10;100.00
37206;BME280;23099;42.636;23.198;2023-03-22T09:52:33;91806.13;;;9.12;100.00
37206;BME280;23099;42.636;23.198;2023-03-22T09:55:01;91801.22;;;9.14;100.00
37206;BME280;23099;42.636;23.198;2023-03-22T09:57:31;91802.41;;;9.16;100.00
37206;BME280;23099;42.636;23.198;2023-03-22T10:00:08;91801.72;;;9.19;100.00
37206;BME280;23099;42.636;23.198;2023-03-22T10:02:49;91803.44;;;9.08;100.00
37206;BME280;23099;42.636;23.198;2023-03-22T10:05:25;91806.91;;;9.12;100.00
37206;BME280;23099;42.636;23.198;2023-03-22T10:10:51;91802.75;;;9.15;100.00
37206;BME280;23099;42.636;23.198;2023-03-22T10:13:25;91812.44;;;9.23;99.81
37206;BME280;23099;42.636;23.198;2023-03-22T10:15:58;91813.56;;;9.22;100.00
37206;BME280;23099;42.636;23.198;2023-03-22T10:18:32;91813.19;;;9.23;100.00
37206;BME280;23099;42.636;23.198;2023-03-22T10:21:02;91814.25;;;9.19;100.00
37206;BME280;23099;42.636;23.198;2023-03-22T10:23:33;91810.94;;;9.26;99.04
37206;BME280;23099;42.636;23.198;2023-03-22T10:26:04;91824.25;;;9.26;98.73
37206;BME280;23099;42.636;23.198;2023-03-22T10:28:37;91816.50;;;9.17;98.35
37206;BME280;23099;42.636;23.198;2023-03-22T10:31:05;91810.06;;;9.18;99.75
37206;BME280;23099;42.636;23.198;2023-03-22T10:33:37;91815.66;;;9.13;100.00
37206;BME280;23099;42.636;23.198;2023-03-22T10:36:11;91811.19;;;9.17;99.84
37206;BME280;23099;42.636;23.198;2023-03-22T10:38:45;91818.06;;;9.18;99.74
37206;BME280;23099;42.636;23.198;2023-03-22T10:41:15;91812.66;;;9.14;100.00
37206;BME280;23099;42.636;23.198;2023-03-22T10:43:46;91805.13;;;9.20;100.00
37206;BME280;23099;42.636;23.198;2023-03-22T10:46:17;91813.13;;;9.20;98.72
37206;BME280;23099;42.636;23.198;2023-03-22T10:48:47;91811.59;;;9.19;100.00
37206;BME280;23099;42.636;23.198;2023-03-22T10:51:20;91819.19;;;9.17;99.60
37206;BME280;23099;42.636;23.198;2023-03-22T10:53:53;91815.38;;;9.18;100.00
37206;BME280;23099;42.636;23.198;2023-03-22T10:56:20;91812.03;;;9.21;100.00
37206;BME280;23099;42.636;23.198;2023-03-22T10:58:49;91821.50;;;9.18;100.00
37206;BME280;23099;42.636;23.198;2023-03-22T11:01:25;91815.91;;;9.04;100.00
37206;BME280;23099;42.636;23.198;2023-03-22T11:03:56;91808.38;;;9.10;100.00
37206;BME280;23099;42.636;23.198;2023-03-22T11:06:25;91811.53;;;9.15;100.00
37206;BME280;23099;42.636;23.198;2023-03-22T11:08:56;91811.28;;;9.01;100.00
37206;BME280;23099;42.636;23.198;2023-03-22T11:11:25;91809.88;;;9.07;100.00
37206;BME280;23099;42.636;23.198;2023-03-22T11:13:59;91812.66;;;9.14;100.00
37206;BME280;23099;42.636;23.198;2023-03-22T11:16:27;91816.03;;;9.11;100.00
37206;BME280;23099;42.636;23.198;2023-03-22T11:18:56;91813.84;;;8.94;100.00
37206;BME280;23099;42.636;23.198;2023-03-22T11:21:26;91812.31;;;8.93;100.00
37206;BME280;23099;42.636;23.198;2023-03-22T11:23:56;91810.03;;;8.95;100.00
37206;BME280;23099;42.636;23.198;2023-03-22T11:26:27;91810.59;;;9.04;100.00
37206;BME280;23099;42.636;23.198;2023-03-22T11:29:05;91816.19;;;8.99;100.00
37206;BME280;23099;42.636;23.198;2023-03-22T11:31:53;91806.97;;;8.93;100.00
37206;BME280;23099;42.636;23.198;2023-03-22T11:34:23;91809.44;;;8.82;100.00
37206;BME280;23099;42.636;23.198;2023-03-22T11:36:50;91799.59;;;8.86;100.00
37206;BME280;23099;42.636;23.198;2023-03-22T11:39:22;91801.09;;;8.84;100.00
37206;BME280;23099;42.636;23.198;2023-03-22T11:41:49;91809.25;;;8.95;100.00
37206;BME280;23099;42.636;23.198;2023-03-22T11:44:20;91806.81;;;9.05;100.00
37206;BME280;23099;42.636;23.198;2023-03-22T11:46:48;91808.63;;;9.01;100.00
37206;BME280;23099;42.636;23.198;2023-03-22T11:49:17;91794.41;;;8.94;100.00
37206;BME280;23099;42.636;23.198;2023-03-22T11:51:44;91799.38;;;8.95;100.00
37206;BME280;23099;42.636;23.198;2023-03-22T11:54:14;91802.59;;;9.04;100.00
37206;BME280;23099;42.636;23.198;2023-03-22T11:56:47;91810.66;;;9.08;100.00
37206;BME280;23099;42.636;23.198;2023-03-22T11:59:21;91806.72;;;9.02;100.00
37206;BME280;23099;42.636;23.198;2023-03-22T12:01:51;91795.19;;;8.94;100.00
37206;BME280;23099;42.636;23.198;2023-03-22T12:04:25;91803.44;;;9.08;100.00
37206;BME280;23099;42.636;23.198;2023-03-22T12:06:54;91802.50;;;9.23;100.00
37206;BME280;23099;42.636;23.198;2023-03-22T12:09:25;91796.66;;;9.37;100.00
37206;BME280;23099;42.636;23.198;2023-03-22T12:11:55;91799.34;;;9.37;100.00
37206;BME280;23099;42.636;23.198;2023-03-22T12:14:25;91792.81;;;9.35;100.00
37206;BME280;23099;42.636;23.198;2023-03-22T12:16:57;91795.63;;;9.45;100.00
37206;BME280;23099;42.636;23.198;2023-03-22T12:19:36;91794.88;;;9.45;100.00
37206;BME280;23099;42.636;23.198;2023-03-22T12:22:10;91801.44;;;9.51;100.00
37206;BME280;23099;42.636;23.198;2023-03-22T12:24:37;91790.38;;;9.49;100.00
37206;BME280;23099;42.636;23.198;2023-03-22T12:27:14;91806.63;;;9.67;100.00
37206;BME280;23099;42.636;23.198;2023-03-22T12:29:44;91788.00;;;9.70;100.00
37206;BME280;23099;42.636;23.198;2023-03-22T12:32:18;91799.66;;;9.85;100.00
37206;BME280;23099;42.636;23.198;2023-03-22T12:34:49;91792.56;;;9.96;100.00
37206;BME280;23099;42.636;23.198;2023-03-22T12:37:19;91795.78;;;10.35;100.00
37206;BME280;23099;42.636;23.198;2023-03-22T12:39:49;91789.38;;;10.77;100.00
37206;BME280;23099;42.636;23.198;2023-03-22T12:42:20;91781.75;;;10.79;99.39
37206;BME280;23099;42.636;23.198;2023-03-22T12:44:48;91785.34;;;10.93;96.79
37206;BME280;23099;42.636;23.198;2023-03-22T12:47:21;91793.97;;;11.17;97.66
37206;BME280;23099;42.636;23.198;2023-03-22T12:49:53;91790.84;;;11.08;94.21
37206;BME280;23099;42.636;23.198;2023-03-22T12:52:24;91799.63;;;11.08;95.43
37206;BME280;23099;42.636;23.198;2023-03-22T12:54:54;91799.19;;;11.03;91.88
37206;BME280;23099;42.636;23.198;2023-03-22T12:57:23;91795.41;;;11.07;93.68
37206;BME280;23099;42.636;23.198;2023-03-22T12:59:53;91797.72;;;11.12;93.73
37206;BME280;23099;42.636;23.198;2023-03-22T13:02:25;91795.81;;;11.09;92.43
37206;BME280;23099;42.636;23.198;2023-03-22T13:04:55;91782.00;;;11.04;93.69
37206;BME280;23099;42.636;23.198;2023-03-22T13:07:35;91788.94;;;11.08;89.85
37206;BME280;23099;42.636;23.198;2023-03-22T13:13:13;91790.63;;;10.86;90.75